sensor_id;sensor_type;location;lat;lon;timestamp;P1;durP1;ratioP1;P2;durP2;ratioP2
55827;SDS011;41758;51.992;5.890;2023-05-10T00:02:25;36.45;;;15.30;;
55827;SDS011;41758;51.992;5.890;2023-05-10T00:04:52;30.38;;;14.98;;
55827;SDS011;41758;51.992;5.890;2023-05-10T00:07:17;27.30;;;15.23;;
55827;SDS011;41758;51.992;5.890;2023-05-10T00:09:43;52.35;;;16.55;;
55827;SDS011;41758;51.992;5.890;2023-05-10T00:12:09;42.15;;;17.42;;
55827;SDS011;41758;51.992;5.890;2023-05-10T00:14:35;35.85;;;16.73;;
55827;SDS011;41758;51.992;5.890;2023-05-10T00:17:00;31.90;;;17.83;;
55827;SDS011;41758;51.992;5.890;2023-05-10T00:19:26;38.78;;;20.48;;
55827;SDS011;41758;51.992;5.890;2023-05-10T00:21:52;36.50;;;19.25;;
55827;SDS011;41758;51.992;5.890;2023-05-10T00:24:17;32.83;;;18.15;;
55827;SDS011;41758;51.992;5.890;2023-05-10T00:26:43;37.80;;;19.70;;
55827;SDS011;41758;51.992;5.890;2023-05-10T00:29:10;59.70;;;20.65;;
55827;SDS011;41758;51.992;5.890;2023-05-10T00:31:35;42.65;;;19.10;;
55827;SDS011;41758;51.992;5.890;2023-05-10T00:34:01;64.03;;;18.48;;
55827;SDS011;41758;51.992;5.890;2023-05-10T00:36:27;46.90;;;17.35;;
55827;SDS011;41758;51.992;5.890;2023-05-10T00:38:52;33.97;;;16.92;;
55827;SDS011;41758;51.992;5.890;2023-05-10T00:41:18;50.17;;;21.90;;
55827;SDS011;41758;51.992;5.890;2023-05-10T00:43:45;55.85;;;20.73;;
55827;SDS011;41758;51.992;5.890;2023-05-10T00:46:11;39.10;;;18.45;;
55827;SDS011;41758;51.992;5.890;2023-05-10T00:48:39;58.85;;;19.80;;
55827;SDS011;41758;51.992;5.890;2023-05-10T00:51:04;48.20;;;20.17;;
55827;SDS011;41758;51.992;5.890;2023-05-10T00:53:31;57.45;;;21.70;;
55827;SDS011;41758;51.992;5.890;2023-05-10T00:55:58;60.53;;;29.02;;
55827;SDS011;41758;51.992;5.890;2023-05-10T00:58:24;65.05;;;25.38;;
55827;SDS011;41758;51.992;5.890;2023-05-10T01:00:53;58.47;;;24.27;;
55827;SDS011;41758;51.992;5.890;2023-05-10T01:03:22;59.90;;;24.23;;
55827;SDS011;41758;51.992;5.890;2023-05-10T01:05:48;45.80;;;22.90;;
55827;SDS011;41758;51.992;5.890;2023-05-10T01:08:13;57.60;;;25.90;;
55827;SDS011;41758;51.992;5.890;2023-05-10T01:10:39;68.60;;;26.38;;
55827;SDS011;41758;51.992;5.890;2023-05-10T01:13:06;37.08;;;24.98;;
55827;SDS011;41758;51.992;5.890;2023-05-10T01:15:32;88.72;;;27.30;;
55827;SDS011;41758;51.992;5.890;2023-05-10T01:17:58;66.70;;;24.83;;
55827;SDS011;41758;51.992;5.890;2023-05-10T01:20:25;33.13;;;20.80;;
55827;SDS011;41758;51.992;5.890;2023-05-10T01:25:56;72.70;;;28.92;;
55827;SDS011;41758;51.992;5.890;2023-05-10T01:34:27;73.20;;;24.63;;
55827;SDS011;41758;51.992;5.890;2023-05-10T01:37:06;58.67;;;23.90;;
55827;SDS011;41758;51.992;5.890;2023-05-10T01:42:25;53.22;;;32.17;;
55827;SDS011;41758;51.992;5.890;2023-05-10T01:45:00;68.05;;;33.15;;
55827;SDS011;41758;51.992;5.890;2023-05-10T01:47:32;66.18;;;31.83;;
55827;SDS011;41758;51.992;5.890;2023-05-10T01:50:06;76.63;;;35.15;;
55827;SDS011;41758;51.992;5.890;2023-05-10T01:52:44;80.25;;;35.58;;
55827;SDS011;41758;51.992;5.890;2023-05-10T01:55:15;70.72;;;33.10;;
55827;SDS011;41758;51.992;5.890;2023-05-10T01:57:43;48.55;;;30.88;;
55827;SDS011;41758;51.992;5.890;2023-05-10T02:00:11;59.47;;;31.90;;
55827;SDS011;41758;51.992;5.890;2023-05-10T02:02:40;49.38;;;27.85;;
55827;SDS011;41758;51.992;5.890;2023-05-10T02:05:11;69.93;;;26.48;;
55827;SDS011;41758;51.992;5.890;2023-05-10T02:07:38;54.30;;;26.83;;
55827;SDS011;41758;51.992;5.890;2023-05-10T02:10:06;61.03;;;29.85;;
55827;SDS011;41758;51.992;5.890;2023-05-10T02:12:37;67.15;;;27.55;;
55827;SDS011;41758;51.992;5.890;2023-05-10T02:15:06;54.78;;;25.10;;
55827;SDS011;41758;51.992;5.890;2023-05-10T02:17:34;57.97;;;29.35;;
55827;SDS011;41758;51.992;5.890;2023-05-10T02:20:02;58.40;;;32.30;;
55827;SDS011;41758;51.992;5.890;2023-05-10T02:22:30;57.47;;;28.30;;
55827;SDS011;41758;51.992;5.890;2023-05-10T02:24:57;81.70;;;27.38;;
55827;SDS011;41758;51.992;5.890;2023-05-10T02:27:24;56.28;;;25.17;;
55827;SDS011;41758;51.992;5.890;2023-05-10T02:29:52;42.97;;;23.00;;
55827;SDS011;41758;51.992;5.890;2023-05-10T02:32:21;38.40;;;24.85;;
55827;SDS011;41758;51.992;5.890;2023-05-10T02:34:49;69.60;;;30.88;;
55827;SDS011;41758;51.992;5.890;2023-05-10T02:37:18;66.18;;;26.95;;
55827;SDS011;41758;51.992;5.890;2023-05-10T02:39:52;72.35;;;28.48;;
55827;SDS011;41758;51.992;5.890;2023-05-10T02:42:22;67.70;;;26.08;;
55827;SDS011;41758;51.992;5.890;2023-05-10T02:44:52;74.07;;;31.77;;
55827;SDS011;41758;51.992;5.890;2023-05-10T02:47:19;69.80;;;28.38;;
55827;SDS011;41758;51.992;5.890;2023-05-10T02:49:47;69.68;;;27.17;;
55827;SDS011;41758;51.992;5.890;2023-05-10T02:52:14;68.55;;;29.90;;
55827;SDS011;41758;51.992;5.890;2023-05-10T02:54:45;64.93;;;29.67;;
55827;SDS011;41758;51.992;5.890;2023-05-10T02:57:15;62.60;;;27.50;;
55827;SDS011;41758;51.992;5.890;2023-05-10T02:59:44;51.45;;;27.85;;
55827;SDS011;41758;51.992;5.890;2023-05-10T03:02:11;91.90;;;32.20;;
55827;SDS011;41758;51.992;5.890;2023-05-10T03:04:38;78.65;;;30.23;;
55827;SDS011;41758;51.992;5.890;2023-05-10T03:07:03;72.95;;;26.90;;
55827;SDS011;41758;51.992;5.890;2023-05-10T03:09:30;51.03;;;25.50;;
55827;SDS011;41758;51.992;5.890;2023-05-10T03:14:33;72.13;;;29.08;;
55827;SDS011;41758;51.992;5.890;2023-05-10T03:19:54;68.63;;;30.17;;
55827;SDS011;41758;51.992;5.890;2023-05-10T03:22:37;80.80;;;29.83;;
55827;SDS011;41758;51.992;5.890;2023-05-10T03:25:06;49.38;;;28.65;;
55827;SDS011;41758;51.992;5.890;2023-05-10T03:27:36;61.40;;;28.75;;
55827;SDS011;41758;51.992;5.890;2023-05-10T03:30:05;59.13;;;26.95;;
55827;SDS011;41758;51.992;5.890;2023-05-10T03:32:33;72.18;;;26.73;;
55827;SDS011;41758;51.992;5.890;2023-05-10T03:35:00;50.05;;;23.73;;
55827;SDS011;41758;51.992;5.890;2023-05-10T03:37:27;63.60;;;26.45;;
55827;SDS011;41758;51.992;5.890;2023-05-10T03:39:52;52.53;;;31.27;;
55827;SDS011;41758;51.992;5.890;2023-05-10T03:42:18;77.03;;;37.40;;
55827;SDS011;41758;51.992;5.890;2023-05-10T03:44:44;73.63;;;33.72;;
55827;SDS011;41758;51.992;5.890;2023-05-10T03:47:10;67.82;;;34.45;;
55827;SDS011;41758;51.992;5.890;2023-05-10T03:49:35;72.22;;;39.90;;
55827;SDS011;41758;51.992;5.890;2023-05-10T03:52:02;80.60;;;38.63;;
55827;SDS011;41758;51.992;5.890;2023-05-10T03:54:27;70.72;;;38.40;;
55827;SDS011;41758;51.992;5.890;2023-05-10T03:56:53;60.33;;;35.95;;
55827;SDS011;41758;51.992;5.890;2023-05-10T03:59:20;81.25;;;40.05;;
55827;SDS011;41758;51.992;5.890;2023-05-10T04:01:46;77.10;;;37.28;;
55827;SDS011;41758;51.992;5.890;2023-05-10T04:04:11;71.78;;;36.55;;
55827;SDS011;41758;51.992;5.890;2023-05-10T04:06:37;86.05;;;40.45;;
55827;SDS011;41758;51.992;5.890;2023-05-10T04:09:03;52.85;;;33.28;;
55827;SDS011;41758;51.992;5.890;2023-05-10T04:11:29;62.40;;;32.78;;
55827;SDS011;41758;51.992;5.890;2023-05-10T04:13:55;69.68;;;31.35;;
55827;SDS011;41758;51.992;5.890;2023-05-10T04:16:20;68.22;;;31.45;;
55827;SDS011;41758;51.992;5.890;2023-05-10T04:18:46;61.88;;;29.58;;
55827;SDS011;41758;51.992;5.890;2023-05-10T04:21:13;58.65;;;33.85;;
55827;SDS011;41758;51.992;5.890;2023-05-10T04:23:39;69.45;;;30.88;;
55827;SDS011;41758;51.992;5.890;2023-05-10T04:26:05;58.55;;;33.55;;
55827;SDS011;41758;51.992;5.890;2023-05-10T04:28:31;65.47;;;31.45;;
55827;SDS011;41758;51.992;5.890;2023-05-10T04:31:00;63.42;;;28.45;;
55827;SDS011;41758;51.992;5.890;2023-05-10T04:33:30;64.82;;;27.38;;
55827;SDS011;41758;51.992;5.890;2023-05-10T04:35:56;70.90;;;33.78;;
55827;SDS011;41758;51.992;5.890;2023-05-10T04:38:21;67.53;;;32.25;;
55827;SDS011;41758;51.992;5.890;2023-05-10T04:40:47;64.80;;;27.95;;
55827;SDS011;41758;51.992;5.890;2023-05-10T04:43:13;52.80;;;25.60;;
55827;SDS011;41758;51.992;5.890;2023-05-10T04:45:39;57.45;;;26.92;;
55827;SDS011;41758;51.992;5.890;2023-05-10T04:48:04;60.78;;;25.10;;
55827;SDS011;41758;51.992;5.890;2023-05-10T04:50:30;43.10;;;22.55;;
55827;SDS011;41758;51.992;5.890;2023-05-10T04:52:56;52.92;;;24.48;;
55827;SDS011;41758;51.992;5.890;2023-05-10T04:55:23;64.03;;;31.42;;
55827;SDS011;41758;51.992;5.890;2023-05-10T04:57:48;72.70;;;37.97;;
55827;SDS011;41758;51.992;5.890;2023-05-10T05:00:14;67.60;;;32.75;;
55827;SDS011;41758;51.992;5.890;2023-05-10T05:02:43;73.55;;;31.45;;
55827;SDS011;41758;51.992;5.890;2023-05-10T05:05:13;77.00;;;29.92;;
55827;SDS011;41758;51.992;5.890;2023-05-10T05:07:39;55.42;;;25.52;;
55827;SDS011;41758;51.992;5.890;2023-05-10T05:10:07;67.47;;;24.45;;
55827;SDS011;41758;51.992;5.890;2023-05-10T05:12:34;67.63;;;24.52;;
55827;SDS011;41758;51.992;5.890;2023-05-10T05:15:00;63.15;;;22.90;;
55827;SDS011;41758;51.992;5.890;2023-05-10T05:17:26;54.35;;;21.98;;
55827;SDS011;41758;51.992;5.890;2023-05-10T05:19:52;64.68;;;25.75;;
55827;SDS011;41758;51.992;5.890;2023-05-10T05:22:18;44.60;;;23.23;;
55827;SDS011;41758;51.992;5.890;2023-05-10T05:24:52;58.90;;;23.98;;
55827;SDS011;41758;51.992;5.890;2023-05-10T05:27:22;54.35;;;24.13;;
55827;SDS011;41758;51.992;5.890;2023-05-10T05:29:52;60.35;;;24.65;;
55827;SDS011;41758;51.992;5.890;2023-05-10T05:32:18;49.85;;;22.50;;
55827;SDS011;41758;51.992;5.890;2023-05-10T05:34:44;53.15;;;24.15;;
55827;SDS011;41758;51.992;5.890;2023-05-10T05:37:17;47.90;;;23.98;;
55827;SDS011;41758;51.992;5.890;2023-05-10T05:39:43;50.33;;;25.43;;
55827;SDS011;41758;51.992;5.890;2023-05-10T05:42:10;57.25;;;24.63;;
55827;SDS011;41758;51.992;5.890;2023-05-10T05:44:36;58.85;;;22.83;;
55827;SDS011;41758;51.992;5.890;2023-05-10T05:47:02;62.13;;;22.02;;
55827;SDS011;41758;51.992;5.890;2023-05-10T05:49:28;51.03;;;22.00;;
55827;SDS011;41758;51.992;5.890;2023-05-10T05:51:54;49.63;;;22.05;;
55827;SDS011;41758;51.992;5.890;2023-05-10T05:54:23;49.72;;;22.02;;
55827;SDS011;41758;51.992;5.890;2023-05-10T05:56:48;61.85;;;25.35;;
55827;SDS011;41758;51.992;5.890;2023-05-10T05:59:14;33.53;;;22.27;;
55827;SDS011;41758;51.992;5.890;2023-05-10T06:01:40;40.75;;;24.27;;
55827;SDS011;41758;51.992;5.890;2023-05-10T06:04:05;69.28;;;30.65;;
55827;SDS011;41758;51.992;5.890;2023-05-10T06:06:31;57.40;;;27.83;;
55827;SDS011;41758;51.992;5.890;2023-05-10T06:08:57;51.15;;;25.75;;
55827;SDS011;41758;51.992;5.890;2023-05-10T06:11:23;55.60;;;24.92;;
55827;SDS011;41758;51.992;5.890;2023-05-10T06:13:48;43.00;;;25.40;;
55827;SDS011;41758;51.992;5.890;2023-05-10T06:16:14;62.70;;;24.58;;
55827;SDS011;41758;51.992;5.890;2023-05-10T06:18:40;60.88;;;24.08;;
55827;SDS011;41758;51.992;5.890;2023-05-10T06:21:06;57.33;;;25.95;;
55827;SDS011;41758;51.992;5.890;2023-05-10T06:23:31;76.38;;;34.40;;
55827;SDS011;41758;51.992;5.890;2023-05-10T06:25:57;57.22;;;29.50;;
55827;SDS011;41758;51.992;5.890;2023-05-10T06:28:23;59.70;;;27.92;;
55827;SDS011;41758;51.992;5.890;2023-05-10T06:30:49;72.85;;;33.08;;
55827;SDS011;41758;51.992;5.890;2023-05-10T06:33:15;56.92;;;30.20;;
55827;SDS011;41758;51.992;5.890;2023-05-10T06:35:41;54.50;;;30.23;;
55827;SDS011;41758;51.992;5.890;2023-05-10T06:38:06;63.65;;;30.42;;
55827;SDS011;41758;51.992;5.890;2023-05-10T06:40:32;59.42;;;25.70;;
55827;SDS011;41758;51.992;5.890;2023-05-10T06:42:58;64.40;;;33.60;;
55827;SDS011;41758;51.992;5.890;2023-05-10T06:45:23;46.42;;;29.65;;
55827;SDS011;41758;51.992;5.890;2023-05-10T06:47:49;77.75;;;29.15;;
55827;SDS011;41758;51.992;5.890;2023-05-10T06:50:15;41.80;;;25.58;;
55827;SDS011;41758;51.992;5.890;2023-05-10T06:52:40;55.15;;;27.08;;
55827;SDS011;41758;51.992;5.890;2023-05-10T06:55:06;59.78;;;27.10;;
55827;SDS011;41758;51.992;5.890;2023-05-10T06:57:33;58.55;;;26.30;;
55827;SDS011;41758;51.992;5.890;2023-05-10T06:59:59;58.55;;;24.77;;
55827;SDS011;41758;51.992;5.890;2023-05-10T07:02:26;41.13;;;22.27;;
55827;SDS011;41758;51.992;5.890;2023-05-10T07:04:51;72.80;;;33.05;;
55827;SDS011;41758;51.992;5.890;2023-05-10T07:07:17;68.53;;;28.75;;
55827;SDS011;41758;51.992;5.890;2023-05-10T07:09:43;71.95;;;30.55;;
55827;SDS011;41758;51.992;5.890;2023-05-10T07:12:10;60.00;;;27.65;;
55827;SDS011;41758;51.992;5.890;2023-05-10T07:14:35;75.82;;;34.60;;
55827;SDS011;41758;51.992;5.890;2023-05-10T07:17:01;71.68;;;34.78;;
55827;SDS011;41758;51.992;5.890;2023-05-10T07:19:27;82.68;;;31.55;;
55827;SDS011;41758;51.992;5.890;2023-05-10T07:21:54;39.45;;;26.00;;
55827;SDS011;41758;51.992;5.890;2023-05-10T07:24:20;44.85;;;27.17;;
55827;SDS011;41758;51.992;5.890;2023-05-10T07:26:45;63.67;;;30.02;;
55827;SDS011;41758;51.992;5.890;2023-05-10T07:29:11;78.93;;;37.97;;
55827;SDS011;41758;51.992;5.890;2023-05-10T07:31:37;49.38;;;31.30;;
55827;SDS011;41758;51.992;5.890;2023-05-10T07:34:02;64.72;;;38.63;;
55827;SDS011;41758;51.992;5.890;2023-05-10T07:36:28;53.83;;;33.05;;
55827;SDS011;41758;51.992;5.890;2023-05-10T07:38:54;66.10;;;32.70;;
55827;SDS011;41758;51.992;5.890;2023-05-10T07:41:20;70.35;;;32.90;;
55827;SDS011;41758;51.992;5.890;2023-05-10T07:43:46;41.72;;;27.25;;
55827;SDS011;41758;51.992;5.890;2023-05-10T07:46:11;70.65;;;32.75;;
55827;SDS011;41758;51.992;5.890;2023-05-10T07:48:37;71.05;;;30.38;;
55827;SDS011;41758;51.992;5.890;2023-05-10T07:51:03;70.30;;;30.13;;
55827;SDS011;41758;51.992;5.890;2023-05-10T07:53:28;65.63;;;28.63;;
55827;SDS011;41758;51.992;5.890;2023-05-10T07:55:57;47.45;;;24.67;;
55827;SDS011;41758;51.992;5.890;2023-05-10T07:58:25;62.30;;;25.75;;
55827;SDS011;41758;51.992;5.890;2023-05-10T08:00:52;59.78;;;23.58;;
55827;SDS011;41758;51.992;5.890;2023-05-10T08:03:17;57.75;;;24.23;;
55827;SDS011;41758;51.992;5.890;2023-05-10T08:05:43;69.03;;;27.52;;
55827;SDS011;41758;51.992;5.890;2023-05-10T08:08:09;56.50;;;26.33;;
55827;SDS011;41758;51.992;5.890;2023-05-10T08:10:34;54.10;;;24.55;;
55827;SDS011;41758;51.992;5.890;2023-05-10T08:13:00;60.75;;;25.83;;
55827;SDS011;41758;51.992;5.890;2023-05-10T08:15:25;64.88;;;25.45;;
55827;SDS011;41758;51.992;5.890;2023-05-10T08:17:52;59.67;;;25.10;;
55827;SDS011;41758;51.992;5.890;2023-05-10T08:20:17;31.30;;;20.55;;
55827;SDS011;41758;51.992;5.890;2023-05-10T08:22:45;42.72;;;22.52;;
55827;SDS011;41758;51.992;5.890;2023-05-10T08:25:10;57.67;;;24.33;;
55827;SDS011;41758;51.992;5.890;2023-05-10T08:27:36;53.38;;;23.52;;
55827;SDS011;41758;51.992;5.890;2023-05-10T08:30:02;59.72;;;29.45;;
55827;SDS011;41758;51.992;5.890;2023-05-10T08:32:28;65.90;;;32.65;;
55827;SDS011;41758;51.992;5.890;2023-05-10T08:34:53;62.85;;;28.38;;
55827;SDS011;41758;51.992;5.890;2023-05-10T08:37:22;51.45;;;26.52;;
55827;SDS011;41758;51.992;5.890;2023-05-10T08:39:48;41.90;;;25.00;;
55827;SDS011;41758;51.992;5.890;2023-05-10T08:42:15;45.45;;;29.80;;
55827;SDS011;41758;51.992;5.890;2023-05-10T08:44:48;45.87;;;29.07;;
55827;SDS011;41758;51.992;5.890;2023-05-10T08:47:15;51.17;;;28.05;;
55827;SDS011;41758;51.992;5.890;2023-05-10T08:49:43;44.25;;;26.23;;
55827;SDS011;41758;51.992;5.890;2023-05-10T08:52:13;43.17;;;23.75;;
55827;SDS011;41758;51.992;5.890;2023-05-10T08:54:41;41.55;;;23.98;;
55827;SDS011;41758;51.992;5.890;2023-05-10T08:57:07;35.13;;;21.95;;
55827;SDS011;41758;51.992;5.890;2023-05-10T08:59:33;42.08;;;22.92;;
55827;SDS011;41758;51.992;5.890;2023-05-10T09:01:59;28.80;;;19.58;;
55827;SDS011;41758;51.992;5.890;2023-05-10T09:04:25;37.97;;;22.33;;
55827;SDS011;41758;51.992;5.890;2023-05-10T09:06:51;29.88;;;20.45;;
55827;SDS011;41758;51.992;5.890;2023-05-10T09:09:17;29.80;;;20.65;;
55827;SDS011;41758;51.992;5.890;2023-05-10T09:11:44;33.60;;;22.80;;
55827;SDS011;41758;51.992;5.890;2023-05-10T09:14:11;30.98;;;22.08;;
55827;SDS011;41758;51.992;5.890;2023-05-10T09:16:39;30.42;;;19.92;;
55827;SDS011;41758;51.992;5.890;2023-05-10T09:19:05;34.33;;;20.65;;
55827;SDS011;41758;51.992;5.890;2023-05-10T09:21:32;28.45;;;18.70;;
55827;SDS011;41758;51.992;5.890;2023-05-10T09:24:02;27.27;;;17.58;;
55827;SDS011;41758;51.992;5.890;2023-05-10T09:26:28;24.70;;;15.63;;
55827;SDS011;41758;51.992;5.890;2023-05-10T09:28:55;19.73;;;14.15;;
55827;SDS011;41758;51.992;5.890;2023-05-10T09:31:28;24.17;;;15.07;;
55827;SDS011;41758;51.992;5.890;2023-05-10T09:34:31;20.13;;;14.88;;
55827;SDS011;41758;51.992;5.890;2023-05-10T09:36:58;21.33;;;15.50;;
55827;SDS011;41758;51.992;5.890;2023-05-10T09:39:36;24.75;;;15.23;;
55827;SDS011;41758;51.992;5.890;2023-05-10T09:42:06;21.02;;;13.93;;
55827;SDS011;41758;51.992;5.890;2023-05-10T09:44:34;23.67;;;12.95;;
55827;SDS011;41758;51.992;5.890;2023-05-10T09:47:00;20.35;;;12.02;;
55827;SDS011;41758;51.992;5.890;2023-05-10T09:49:27;24.58;;;14.40;;
55827;SDS011;41758;51.992;5.890;2023-05-10T09:52:00;22.17;;;13.60;;
55827;SDS011;41758;51.992;5.890;2023-05-10T09:54:30;22.67;;;13.13;;
55827;SDS011;41758;51.992;5.890;2023-05-10T09:56:57;17.10;;;12.88;;
55827;SDS011;41758;51.992;5.890;2023-05-10T09:59:24;18.77;;;12.82;;
55827;SDS011;41758;51.992;5.890;2023-05-10T10:01:55;18.58;;;12.90;;
55827;SDS011;41758;51.992;5.890;2023-05-10T10:04:22;19.08;;;11.98;;
55827;SDS011;41758;51.992;5.890;2023-05-10T10:06:58;20.08;;;11.65;;
55827;SDS011;41758;51.992;5.890;2023-05-10T10:09:28;19.98;;;12.25;;
55827;SDS011;41758;51.992;5.890;2023-05-10T10:11:54;16.65;;;12.50;;
55827;SDS011;41758;51.992;5.890;2023-05-10T10:14:21;16.20;;;12.48;;
55827;SDS011;41758;51.992;5.890;2023-05-10T10:16:48;23.35;;;14.30;;
55827;SDS011;41758;51.992;5.890;2023-05-10T10:19:15;20.88;;;14.05;;
55827;SDS011;41758;51.992;5.890;2023-05-10T10:21:41;22.27;;;13.73;;
55827;SDS011;41758;51.992;5.890;2023-05-10T10:24:06;22.67;;;14.00;;
55827;SDS011;41758;51.992;5.890;2023-05-10T10:26:33;20.33;;;14.48;;
55827;SDS011;41758;51.992;5.890;2023-05-10T10:32:02;14.85;;;11.15;;
55827;SDS011;41758;51.992;5.890;2023-05-10T10:35:05;24.00;;;14.55;;
55827;SDS011;41758;51.992;5.890;2023-05-10T10:37:45;21.52;;;14.50;;
55827;SDS011;41758;51.992;5.890;2023-05-10T10:42:51;21.05;;;13.20;;
55827;SDS011;41758;51.992;5.890;2023-05-10T10:45:18;21.73;;;13.07;;
55827;SDS011;41758;51.992;5.890;2023-05-10T10:47:44;23.63;;;13.65;;
55827;SDS011;41758;51.992;5.890;2023-05-10T10:50:10;20.52;;;11.63;;
55827;SDS011;41758;51.992;5.890;2023-05-10T10:52:44;15.65;;;10.73;;
55827;SDS011;41758;51.992;5.890;2023-05-10T10:57:50;20.58;;;12.60;;
55827;SDS011;41758;51.992;5.890;2023-05-10T11:00:29;18.98;;;12.38;;
55827;SDS011;41758;51.992;5.890;2023-05-10T11:03:10;20.98;;;12.32;;
55827;SDS011;41758;51.992;5.890;2023-05-10T11:05:47;22.20;;;14.02;;
55827;SDS011;41758;51.992;5.890;2023-05-10T11:10:53;22.50;;;13.73;;
55827;SDS011;41758;51.992;5.890;2023-05-10T11:13:45;22.25;;;13.52;;
55827;SDS011;41758;51.992;5.890;2023-05-10T11:16:18;23.30;;;14.38;;
55827;SDS011;41758;51.992;5.890;2023-05-10T11:19:03;19.13;;;12.35;;
55827;SDS011;41758;51.992;5.890;2023-05-10T11:21:32;15.95;;;11.55;;
55827;SDS011;41758;51.992;5.890;2023-05-10T11:23:58;16.95;;;12.15;;
55827;SDS011;41758;51.992;5.890;2023-05-10T11:26:29;21.33;;;13.70;;
55827;SDS011;41758;51.992;5.890;2023-05-10T11:28:56;22.80;;;15.07;;
55827;SDS011;41758;51.992;5.890;2023-05-10T11:31:23;24.45;;;16.80;;
55827;SDS011;41758;51.992;5.890;2023-05-10T11:33:52;20.40;;;15.23;;
55827;SDS011;41758;51.992;5.890;2023-05-10T11:36:23;22.27;;;14.70;;
55827;SDS011;41758;51.992;5.890;2023-05-10T11:38:50;22.58;;;13.85;;
55827;SDS011;41758;51.992;5.890;2023-05-10T11:41:17;19.27;;;12.75;;
55827;SDS011;41758;51.992;5.890;2023-05-10T11:43:45;16.42;;;10.88;;
55827;SDS011;41758;51.992;5.890;2023-05-10T11:46:12;21.77;;;13.10;;
55827;SDS011;41758;51.992;5.890;2023-05-10T11:48:39;15.98;;;10.82;;
55827;SDS011;41758;51.992;5.890;2023-05-10T11:51:08;11.98;;;9.38;;
55827;SDS011;41758;51.992;5.890;2023-05-10T11:53:35;18.30;;;13.10;;
55827;SDS011;41758;51.992;5.890;2023-05-10T11:56:08;18.85;;;14.70;;
55827;SDS011;41758;51.992;5.890;2023-05-10T11:58:35;23.10;;;15.73;;
55827;SDS011;41758;51.992;5.890;2023-05-10T12:01:02;19.90;;;13.98;;
55827;SDS011;41758;51.992;5.890;2023-05-10T12:03:30;17.05;;;12.35;;
55827;SDS011;41758;51.992;5.890;2023-05-10T12:05:56;18.95;;;14.25;;
55827;SDS011;41758;51.992;5.890;2023-05-10T12:08:23;17.10;;;13.10;;
55827;SDS011;41758;51.992;5.890;2023-05-10T12:10:50;21.20;;;13.60;;
55827;SDS011;41758;51.992;5.890;2023-05-10T12:13:17;19.10;;;13.50;;
55827;SDS011;41758;51.992;5.890;2023-05-10T12:15:44;16.05;;;12.23;;
55827;SDS011;41758;51.992;5.890;2023-05-10T12:18:10;17.35;;;12.35;;
55827;SDS011;41758;51.992;5.890;2023-05-10T12:20:37;18.92;;;12.93;;
55827;SDS011;41758;51.992;5.890;2023-05-10T12:23:03;14.35;;;10.85;;
55827;SDS011;41758;51.992;5.890;2023-05-10T12:25:33;15.68;;;11.68;;
55827;SDS011;41758;51.992;5.890;2023-05-10T12:28:00;16.67;;;12.80;;
55827;SDS011;41758;51.992;5.890;2023-05-10T12:30:29;16.95;;;11.75;;
55827;SDS011;41758;51.992;5.890;2023-05-10T12:33:02;16.20;;;10.48;;
55827;SDS011;41758;51.992;5.890;2023-05-10T12:35:32;14.55;;;10.10;;
55827;SDS011;41758;51.992;5.890;2023-05-10T12:37:59;16.45;;;10.18;;
55827;SDS011;41758;51.992;5.890;2023-05-10T12:40:25;13.65;;;9.88;;
55827;SDS011;41758;51.992;5.890;2023-05-10T12:42:50;11.13;;;9.07;;
55827;SDS011;41758;51.992;5.890;2023-05-10T12:45:17;14.18;;;10.23;;
55827;SDS011;41758;51.992;5.890;2023-05-10T12:47:43;14.05;;;10.10;;
55827;SDS011;41758;51.992;5.890;2023-05-10T12:50:09;13.85;;;9.52;;
55827;SDS011;41758;51.992;5.890;2023-05-10T12:52:35;13.20;;;9.43;;
55827;SDS011;41758;51.992;5.890;2023-05-10T12:55:01;11.98;;;9.52;;
55827;SDS011;41758;51.992;5.890;2023-05-10T12:57:28;12.60;;;9.48;;
55827;SDS011;41758;51.992;5.890;2023-05-10T12:59:54;14.38;;;10.07;;
55827;SDS011;41758;51.992;5.890;2023-05-10T13:02:20;12.85;;;9.57;;
55827;SDS011;41758;51.992;5.890;2023-05-10T13:04:46;11.55;;;9.55;;
55827;SDS011;41758;51.992;5.890;2023-05-10T13:07:13;12.82;;;8.80;;
55827;SDS011;41758;51.992;5.890;2023-05-10T13:09:39;12.90;;;10.05;;
55827;SDS011;41758;51.992;5.890;2023-05-10T13:12:05;14.80;;;10.68;;
55827;SDS011;41758;51.992;5.890;2023-05-10T13:14:31;13.60;;;9.15;;
55827;SDS011;41758;51.992;5.890;2023-05-10T13:16:57;14.23;;;9.23;;
55827;SDS011;41758;51.992;5.890;2023-05-10T13:19:22;11.88;;;8.43;;
55827;SDS011;41758;51.992;5.890;2023-05-10T13:21:48;11.93;;;8.43;;
55827;SDS011;41758;51.992;5.890;2023-05-10T13:24:14;12.85;;;8.65;;
55827;SDS011;41758;51.992;5.890;2023-05-10T13:26:40;11.35;;;7.97;;
55827;SDS011;41758;51.992;5.890;2023-05-10T13:29:06;11.45;;;8.32;;
55827;SDS011;41758;51.992;5.890;2023-05-10T13:31:32;12.52;;;9.20;;
55827;SDS011;41758;51.992;5.890;2023-05-10T13:33:58;12.07;;;8.40;;
55827;SDS011;41758;51.992;5.890;2023-05-10T13:36:24;10.93;;;8.02;;
55827;SDS011;41758;51.992;5.890;2023-05-10T13:38:50;13.20;;;8.75;;
55827;SDS011;41758;51.992;5.890;2023-05-10T13:41:15;11.45;;;7.60;;
55827;SDS011;41758;51.992;5.890;2023-05-10T13:43:41;10.60;;;7.50;;
55827;SDS011;41758;51.992;5.890;2023-05-10T13:46:07;11.32;;;8.88;;
55827;SDS011;41758;51.992;5.890;2023-05-10T13:48:32;12.30;;;9.20;;
55827;SDS011;41758;51.992;5.890;2023-05-10T13:50:58;11.10;;;9.13;;
55827;SDS011;41758;51.992;5.890;2023-05-10T13:53:24;19.17;;;15.65;;
55827;SDS011;41758;51.992;5.890;2023-05-10T13:55:49;24.35;;;19.90;;
55827;SDS011;41758;51.992;5.890;2023-05-10T13:58:15;20.83;;;18.63;;
55827;SDS011;41758;51.992;5.890;2023-05-10T14:00:41;19.38;;;17.58;;
55827;SDS011;41758;51.992;5.890;2023-05-10T14:03:06;26.42;;;23.63;;
55827;SDS011;41758;51.992;5.890;2023-05-10T14:05:34;24.65;;;21.92;;
55827;SDS011;41758;51.992;5.890;2023-05-10T14:07:59;20.65;;;18.45;;
55827;SDS011;41758;51.992;5.890;2023-05-10T14:10:25;22.27;;;20.00;;
55827;SDS011;41758;51.992;5.890;2023-05-10T14:12:51;22.92;;;20.52;;
55827;SDS011;41758;51.992;5.890;2023-05-10T14:15:16;20.35;;;18.35;;
55827;SDS011;41758;51.992;5.890;2023-05-10T14:17:43;19.45;;;17.33;;
55827;SDS011;41758;51.992;5.890;2023-05-10T14:20:08;16.63;;;14.98;;
55827;SDS011;41758;51.992;5.890;2023-05-10T14:22:35;19.60;;;17.45;;
55827;SDS011;41758;51.992;5.890;2023-05-10T14:25:00;21.15;;;17.33;;
55827;SDS011;41758;51.992;5.890;2023-05-10T14:27:26;19.85;;;16.85;;
55827;SDS011;41758;51.992;5.890;2023-05-10T14:29:52;21.55;;;17.80;;
55827;SDS011;41758;51.992;5.890;2023-05-10T14:32:19;22.70;;;19.27;;
55827;SDS011;41758;51.992;5.890;2023-05-10T14:34:44;19.63;;;17.63;;
55827;SDS011;41758;51.992;5.890;2023-05-10T14:37:10;17.23;;;15.45;;
55827;SDS011;41758;51.992;5.890;2023-05-10T14:39:37;16.50;;;14.70;;
55827;SDS011;41758;51.992;5.890;2023-05-10T14:42:03;15.88;;;14.27;;
55827;SDS011;41758;51.992;5.890;2023-05-10T14:44:29;16.70;;;14.73;;
55827;SDS011;41758;51.992;5.890;2023-05-10T14:46:54;14.27;;;12.80;;
55827;SDS011;41758;51.992;5.890;2023-05-10T14:49:21;14.57;;;12.82;;
55827;SDS011;41758;51.992;5.890;2023-05-10T14:51:49;13.05;;;11.68;;
55827;SDS011;41758;51.992;5.890;2023-05-10T14:54:15;15.05;;;12.93;;